createdAt,value
2018-07-12T00:00:35.271Z,987.4
2018-07-12T00:01:45.400Z,987.39
2018-07-12T00:02:55.217Z,987.4
2018-07-12T00:04:05.302Z,987.44
2018-07-12T00:05:14.824Z,987.49
2018-07-12T00:06:24.895Z,987.42
2018-07-12T00:07:34.723Z,987.43
2018-07-12T00:08:44.790Z,987.41
2018-07-12T00:09:54.592Z,987.42
2018-07-12T00:11:04.397Z,987.44
2018-07-12T00:12:14.465Z,987.39
2018-07-12T00:13:24.567Z,987.39
2018-07-12T00:14:34.639Z,987.41
2018-07-12T00:15:44.704Z,987.36
2018-07-12T00:16:54.774Z,987.37
2018-07-12T00:18:04.573Z,987.41
2018-07-12T00:19:14.153Z,987.35
2018-07-12T00:20:24.229Z,987.33
2018-07-12T00:21:34.302Z,987.35
2018-07-12T00:22:44.370Z,987.33
2018-07-12T00:23:53.886Z,987.33
2018-07-12T00:25:04.000Z,987.31
2018-07-12T00:26:13.814Z,987.33
2018-07-12T00:27:23.337Z,987.31
2018-07-12T00:28:33.390Z,987.3
2018-07-12T00:29:43.180Z,987.31
2018-07-12T00:30:53.036Z,987.29
2018-07-12T00:32:03.105Z,987.3
2018-07-12T00:33:12.901Z,987.3
2018-07-12T00:34:22.987Z,987.28
2018-07-12T00:35:33.054Z,987.28
2018-07-12T00:36:43.171Z,987.3
2018-07-12T00:37:53.239Z,987.29
2018-07-12T00:39:03.319Z,987.27
2018-07-12T00:40:13.399Z,987.27
2018-07-12T00:41:23.470Z,987.27
2018-07-12T00:42:33.582Z,987.25
2018-07-12T00:43:43.657Z,987.25
2018-07-12T00:44:53.478Z,987.22
2018-07-12T00:46:03.561Z,987.23
2018-07-12T00:47:13.373Z,987.21
2018-07-12T00:48:23.507Z,987.2
2018-07-12T00:49:33.583Z,987.2
2018-07-12T00:50:43.651Z,987.2
2018-07-12T00:51:53.718Z,987.21
2018-07-12T00:53:03.784Z,987.21
2018-07-12T00:54:13.907Z,987.2
2018-07-12T00:55:24.001Z,987.16
2018-07-12T00:56:33.511Z,987.16
2018-07-12T00:57:43.596Z,987.23
2018-07-12T00:58:53.679Z,987.22
2018-07-12T01:00:03.555Z,987.22
2018-07-12T01:01:13.092Z,987.19
2018-07-12T01:02:22.894Z,987.25
2018-07-12T01:03:32.980Z,987.23
2018-07-12T01:04:43.054Z,987.21
2018-07-12T01:05:53.191Z,987.23
2018-07-12T01:07:03.018Z,987.25
2018-07-12T01:08:13.096Z,987.24
2018-07-12T01:09:23.154Z,987.27
2018-07-12T01:10:33.246Z,987.26
2018-07-12T01:11:43.083Z,987.22
2018-07-12T01:12:53.149Z,987.26
2018-07-12T01:14:03.225Z,987.23
2018-07-12T01:15:13.012Z,987.23
2018-07-12T01:16:22.828Z,987.23
2018-07-12T01:17:32.671Z,987.23
2018-07-12T01:18:42.482Z,987.23
2018-07-12T01:19:52.573Z,987.22
2018-07-12T01:21:02.377Z,987.23
2018-07-12T01:22:12.484Z,987.25
2018-07-12T01:23:22.625Z,987.2
2018-07-12T01:24:32.421Z,987.2
2018-07-12T01:25:42.493Z,987.23
2018-07-12T01:26:52.036Z,987.24
2018-07-12T01:28:02.104Z,987.19
2018-07-12T01:29:12.221Z,987.23
2018-07-12T01:30:22.295Z,987.18
2018-07-12T01:31:32.369Z,987.2
2018-07-12T01:32:41.894Z,987.22
2018-07-12T01:33:51.695Z,987.23
2018-07-12T01:35:01.825Z,987.22
2018-07-12T01:36:11.659Z,987.22
2018-07-12T01:37:21.993Z,987.21
2018-07-12T01:38:31.775Z,987.22
2018-07-12T01:39:41.828Z,987.18
2018-07-12T01:40:51.948Z,987.2
2018-07-12T01:42:01.773Z,987.2
2018-07-12T01:43:11.845Z,987.2
2018-07-12T01:44:21.656Z,987.2
2018-07-12T01:45:31.470Z,987.21
2018-07-12T01:46:41.594Z,987.21
2018-07-12T01:47:51.401Z,987.21
2018-07-12T01:49:01.474Z,987.23
2018-07-12T01:50:11.285Z,987.21
2018-07-12T01:51:21.343Z,987.24
2018-07-12T01:52:31.187Z,987.24
2018-07-12T01:53:41.316Z,987.21
2018-07-12T01:54:51.426Z,987.18
2018-07-12T01:56:01.490Z,987.25
2018-07-12T01:57:11.284Z,987.18
2018-07-12T01:58:21.403Z,987.23
2018-07-12T01:59:31.210Z,987.19
2018-07-12T02:00:41.350Z,987.18
2018-07-12T02:01:51.500Z,987.21
2018-07-12T02:03:01.624Z,987.22
2018-07-12T02:04:11.477Z,987.23
2018-07-12T02:05:21.529Z,987.19
2018-07-12T02:06:31.322Z,987.22
2018-07-12T02:07:41.395Z,987.19
2018-07-12T02:08:51.472Z,987.23
2018-07-12T02:10:01.598Z,987.18
2018-07-12T02:11:11.131Z,987.18
2018-07-12T02:12:21.203Z,987.16
2018-07-12T02:13:31.270Z,987.17
2018-07-12T02:14:41.357Z,987.15
2018-07-12T02:15:51.224Z,987.13
2018-07-12T02:17:01.309Z,987.15
2018-07-12T02:18:10.910Z,987.12
2018-07-12T02:19:20.977Z,987.13
2018-07-12T02:20:30.764Z,987.11
2018-07-12T02:21:40.897Z,987.1
2018-07-12T02:22:50.685Z,987.12
2018-07-12T02:24:00.475Z,987.14
2018-07-12T02:25:10.524Z,987.08
2018-07-12T02:26:20.597Z,987.09
2018-07-12T02:27:30.745Z,987.08
2018-07-12T02:28:40.812Z,987.1
2018-07-12T02:29:50.604Z,987.09
2018-07-12T02:31:00.141Z,987.09
2018-07-12T02:32:09.954Z,987.08
2018-07-12T02:33:20.088Z,987.12
2018-07-12T02:34:29.885Z,987.12
2018-07-12T02:35:40.004Z,987.13
2018-07-12T02:36:50.112Z,987.11
2018-07-12T02:37:59.673Z,987.13
2018-07-12T02:39:09.536Z,987.14
2018-07-12T02:40:19.625Z,987.12
2018-07-12T02:41:29.704Z,987.16
2018-07-12T02:42:39.779Z,987.1
2018-07-12T02:43:49.599Z,987.08
2018-07-12T02:44:59.461Z,987.09
2018-07-12T02:46:09.561Z,987.07
2018-07-12T02:47:19.639Z,987.06
2018-07-12T02:48:29.705Z,987.09
2018-07-12T02:49:39.800Z,987.07
2018-07-12T02:50:49.654Z,987.09
2018-07-12T02:51:59.725Z,987.07
2018-07-12T02:53:09.269Z,987.09
2018-07-12T02:54:19.066Z,987.04
2018-07-12T02:55:29.135Z,987.02
2018-07-12T02:56:39.262Z,986.98
2018-07-12T02:57:49.350Z,987.02
2018-07-12T02:58:59.432Z,987.02
2018-07-12T03:00:08.965Z,986.98
2018-07-12T03:04:44.931Z,986.93
2018-07-12T03:05:55.006Z,986.95
2018-07-12T03:07:04.801Z,986.91
2018-07-12T03:08:14.904Z,986.92
2018-07-12T03:09:24.779Z,986.89
2018-07-12T03:10:34.576Z,986.9
2018-07-12T03:11:44.108Z,986.89
2018-07-12T03:12:54.171Z,986.89
2018-07-12T03:14:03.702Z,986.92
2018-07-12T03:15:13.622Z,986.89
2018-07-12T03:16:23.690Z,986.9
2018-07-12T03:17:33.767Z,986.92
2018-07-12T03:18:43.573Z,986.88
2018-07-12T03:19:53.646Z,986.92
2018-07-12T03:21:03.781Z,986.94
2018-07-12T03:22:13.558Z,986.95
2018-07-12T03:23:23.662Z,986.97
2018-07-12T03:24:33.723Z,986.97
2018-07-12T03:25:43.819Z,987.04
2018-07-12T03:26:53.667Z,987.07
2018-07-12T03:28:03.486Z,987.11
2018-07-12T03:29:13.562Z,987.14
2018-07-12T03:30:23.618Z,987.09
2018-07-12T03:31:33.695Z,987.12
2018-07-12T03:32:43.844Z,987.1
2018-07-12T03:33:53.917Z,987.11
2018-07-12T03:35:03.729Z,987.08
2018-07-12T03:36:13.548Z,987.09
2018-07-12T03:37:23.617Z,987.11
2018-07-12T03:38:33.744Z,987.1
2018-07-12T03:39:43.824Z,987.13
2018-07-12T03:40:53.620Z,987.12
2018-07-12T03:42:03.407Z,987.09
2018-07-12T03:43:13.464Z,987.1
2018-07-12T03:44:23.579Z,987.1
2018-07-12T03:45:33.385Z,987.1
2018-07-12T03:46:43.460Z,987.13
2018-07-12T03:47:53.548Z,987.11
2018-07-12T03:49:03.360Z,987.09
2018-07-12T03:50:13.485Z,987.08
2018-07-12T03:51:23.561Z,987.1
2018-07-12T03:52:33.641Z,987.07
2018-07-12T03:53:43.713Z,987.07
2018-07-12T03:54:53.767Z,987.05
2018-07-12T03:56:03.658Z,987.07
2018-07-12T03:57:13.731Z,987.09
2018-07-12T03:58:23.792Z,987.04
2018-07-12T03:59:33.315Z,987.09
2018-07-12T04:00:43.401Z,987.12
2018-07-12T04:01:52.996Z,987.13
2018-07-12T04:03:02.815Z,987.15
2018-07-12T04:04:12.618Z,987.11
2018-07-12T04:05:22.422Z,987.11
2018-07-12T04:06:31.965Z,987.09
2018-07-12T04:07:41.558Z,987.07
2018-07-12T04:08:51.640Z,987.1
2018-07-12T04:10:01.728Z,987.06
2018-07-12T04:11:11.271Z,987.08
2018-07-12T04:12:20.809Z,987.1
2018-07-12T04:13:30.378Z,987.06
2018-07-12T04:14:40.183Z,987.04
2018-07-12T04:15:50.009Z,987.05
2018-07-12T04:16:59.815Z,987.05
2018-07-12T04:18:09.884Z,987.03
2018-07-12T04:19:19.746Z,987.04
2018-07-12T04:20:29.532Z,987.01
2018-07-12T04:21:39.604Z,987.02
2018-07-12T04:22:49.686Z,987.03
2018-07-12T04:23:59.491Z,987.04
2018-07-12T04:25:09.093Z,987.03
2018-07-12T04:26:19.156Z,987.03
2018-07-12T04:27:29.214Z,987.07
2018-07-12T04:28:39.285Z,987.05
2018-07-12T04:29:49.345Z,987.04
2018-07-12T04:30:59.470Z,987.05
2018-07-12T04:32:08.985Z,987.04
2018-07-12T04:33:19.064Z,987.06
2018-07-12T04:34:29.145Z,987.06
2018-07-12T04:35:39.327Z,987.06
2018-07-12T04:36:49.440Z,987.06
2018-07-12T04:37:59.510Z,987.07
2018-07-12T04:39:09.330Z,987.04
2018-07-12T04:40:19.401Z,987.05
2018-07-12T04:41:29.489Z,987.02
2018-07-12T04:42:39.388Z,987.08
2018-07-12T04:43:49.457Z,987.03
2018-07-12T04:44:59.529Z,987.05
2018-07-12T04:46:09.335Z,987.03
2018-07-12T04:47:19.420Z,987.05
2018-07-12T04:48:29.593Z,987.02
2018-07-12T04:49:39.659Z,987.02
2018-07-12T04:50:49.735Z,987.05
2018-07-12T04:51:59.269Z,987.04
2018-07-12T04:53:09.350Z,987.04
2018-07-12T04:54:18.926Z,987.05
2018-07-12T04:55:28.460Z,987.03
2018-07-12T04:56:38.528Z,987.08
2018-07-12T04:57:48.591Z,987.06
2018-07-12T04:58:58.654Z,987.05
2018-07-12T05:00:08.507Z,987.05
2018-07-12T05:01:18.593Z,987.07
2018-07-12T05:02:28.125Z,987
2018-07-12T05:03:38.182Z,986.99
2018-07-12T05:04:47.973Z,987.03
2018-07-12T05:05:58.090Z,987.03
2018-07-12T05:07:07.911Z,987.01
2018-07-12T05:08:17.718Z,987
2018-07-12T05:09:27.533Z,986.98
2018-07-12T05:10:37.603Z,986.96
2018-07-12T05:11:47.717Z,987
2018-07-12T05:12:57.807Z,987
2018-07-12T05:14:07.871Z,986.99
2018-07-12T05:15:17.943Z,987.01
2018-07-12T05:16:28.033Z,987.02
2018-07-12T05:17:37.603Z,987.01
2018-07-12T05:18:47.672Z,987
2018-07-12T05:19:57.736Z,987
2018-07-12T05:21:07.814Z,987
2018-07-12T05:22:17.892Z,986.97
2018-07-12T05:23:28.021Z,986.98
2018-07-12T05:24:38.098Z,987.02
2018-07-12T05:25:48.194Z,986.97
2018-07-12T05:26:57.990Z,986.97
2018-07-12T05:28:07.787Z,986.97
2018-07-12T05:29:17.655Z,986.96
2018-07-12T05:30:27.728Z,986.99
2018-07-12T05:31:37.782Z,986.98
2018-07-12T05:32:47.599Z,987.02
2018-07-12T05:33:57.727Z,986.97
2018-07-12T05:35:07.590Z,986.95
2018-07-12T05:36:17.661Z,986.92
2018-07-12T05:37:27.471Z,986.93
2018-07-12T05:38:37.541Z,986.96
2018-07-12T05:39:47.610Z,986.97
2018-07-12T05:40:57.775Z,986.99
2018-07-12T05:42:07.572Z,986.95
2018-07-12T05:43:17.380Z,986.96
2018-07-12T05:44:26.921Z,986.95
2018-07-12T05:45:36.194Z,986.97
2018-07-12T05:46:46.149Z,986.98
2018-07-12T05:47:55.836Z,986.97
2018-07-12T05:49:05.907Z,986.96
2018-07-12T05:50:16.028Z,986.94
2018-07-12T05:51:25.560Z,986.96
2018-07-12T05:52:35.679Z,986.99
2018-07-12T05:53:45.471Z,986.99
2018-07-12T05:54:55.272Z,987
2018-07-12T05:56:05.084Z,987
2018-07-12T05:57:14.637Z,987.03
2018-07-12T05:58:24.534Z,987.01
2018-07-12T05:59:34.623Z,987.02
2018-07-12T06:00:44.699Z,987.04
2018-07-12T06:01:54.495Z,986.99
2018-07-12T06:03:04.306Z,987.01
2018-07-12T06:04:14.169Z,987.09
2018-07-12T06:05:23.953Z,987.06
2018-07-12T06:06:33.777Z,987.05
2018-07-12T06:07:43.304Z,987.05
2018-07-12T06:08:52.842Z,987.03
2018-07-12T06:10:02.961Z,987.06
2018-07-12T06:11:13.050Z,987.04
2018-07-12T06:12:22.864Z,987.05
2018-07-12T06:13:32.948Z,987.06
2018-07-12T06:14:42.749Z,987.06
2018-07-12T06:15:52.606Z,987.02
2018-07-12T06:17:02.570Z,987.07
2018-07-12T06:18:12.412Z,987.08
2018-07-12T06:19:22.238Z,987.07
2018-07-12T06:20:31.783Z,987.03
2018-07-12T06:21:41.364Z,987.01
2018-07-12T06:22:51.163Z,987.06
2018-07-12T06:24:00.970Z,987.07
2018-07-12T06:25:11.041Z,987.06
2018-07-12T06:26:20.889Z,987.08
2018-07-12T06:27:30.733Z,987.07
2018-07-12T06:28:40.791Z,987.1
2018-07-12T06:29:50.900Z,987.08
2018-07-12T06:31:01.179Z,987.07
2018-07-12T06:32:11.261Z,987.1
2018-07-12T06:33:21.091Z,987.09
2018-07-12T06:34:30.623Z,987.07
2018-07-12T06:35:40.701Z,987.09
2018-07-12T06:37:09.216Z,987.1
2018-07-12T06:38:19.508Z,987.08
2018-07-12T06:39:29.311Z,987.05
2018-07-12T06:40:39.640Z,987.05
2018-07-12T06:41:49.707Z,987.05
2018-07-12T06:42:59.502Z,987.08
2018-07-12T06:44:09.088Z,987.04
2018-07-12T06:45:19.158Z,987.05
2018-07-12T06:46:28.965Z,987.08
2018-07-12T06:47:38.764Z,987.04
2018-07-12T06:48:48.839Z,987.04
2018-07-12T06:49:58.942Z,987.07
2018-07-12T06:51:08.483Z,987.06
2018-07-12T06:52:18.325Z,987.04
2018-07-12T06:53:28.120Z,987.06
2018-07-12T06:54:37.925Z,987.08
2018-07-12T06:55:47.494Z,987.08
2018-07-12T06:56:57.559Z,987.04
2018-07-12T06:58:07.353Z,987.01
2018-07-12T06:59:17.164Z,987.05
2018-07-12T07:00:26.990Z,987.01
2018-07-12T07:01:36.978Z,987.03
2018-07-12T07:02:46.795Z,987.02
2018-07-12T07:03:56.876Z,987.03
2018-07-12T07:05:06.951Z,987.05
2018-07-12T07:06:17.027Z,987.05
2018-07-12T07:07:27.148Z,987.03
2018-07-12T07:08:36.954Z,987.05
2018-07-12T07:09:46.741Z,987.04
2018-07-12T07:10:56.267Z,987.04
2018-07-12T07:12:05.807Z,987.04
2018-07-12T07:13:15.926Z,986.99
2018-07-12T07:14:25.182Z,987.01
2018-07-12T07:15:34.704Z,987.01
2018-07-12T07:16:44.241Z,987.03
2018-07-12T07:17:54.041Z,987.02
2018-07-12T07:19:03.909Z,987.03
2018-07-12T07:20:14.068Z,987.01
2018-07-12T07:21:24.034Z,987.05
2018-07-12T07:22:33.833Z,987.04
2018-07-12T07:23:43.101Z,987.03
2018-07-12T07:24:53.242Z,987.02
2018-07-12T07:26:03.314Z,987
2018-07-12T07:27:13.474Z,986.99
2018-07-12T07:28:23.560Z,986.98
2018-07-12T07:29:33.372Z,986.95
2018-07-12T07:30:43.225Z,986.99
2018-07-12T07:31:52.738Z,987
2018-07-12T07:33:02.556Z,986.99
2018-07-12T07:34:12.091Z,986.99
2018-07-12T07:35:21.632Z,987.05
2018-07-12T07:36:31.847Z,987.01
2018-07-12T07:37:41.643Z,987.02
2018-07-12T07:38:51.729Z,987
2018-07-12T07:40:01.539Z,987.04
2018-07-12T07:41:11.620Z,987.04
2018-07-12T07:42:21.204Z,986.96
2018-07-12T07:43:31.268Z,987.01
2018-07-12T07:44:41.359Z,987.01
2018-07-12T07:45:51.165Z,987.02
2018-07-12T07:47:01.242Z,986.99
2018-07-12T07:48:10.841Z,986.98
2018-07-12T07:49:20.404Z,987.01
2018-07-12T07:50:31.029Z,986.99
2018-07-12T07:51:40.838Z,986.92
2018-07-12T07:52:50.634Z,986.95
2018-07-12T07:54:00.494Z,986.93
2018-07-12T07:55:10.304Z,986.96
2018-07-12T07:56:20.383Z,986.96
2018-07-12T07:57:30.455Z,986.98
2018-07-12T07:58:39.880Z,986.98
2018-07-12T07:59:50.199Z,987
2018-07-12T08:01:00.016Z,987.05
2018-07-12T08:02:09.828Z,987.02
2018-07-12T08:03:19.921Z,987
2018-07-12T08:04:30.500Z,987.03
2018-07-12T08:05:40.086Z,987.01
2018-07-12T08:06:49.894Z,986.97
2018-07-12T08:07:59.700Z,986.98
2018-07-12T08:09:09.503Z,986.99
2018-07-12T08:10:19.306Z,986.97
2018-07-12T08:11:29.442Z,986.96
2018-07-12T08:12:38.981Z,986.97
2018-07-12T08:13:48.827Z,986.95
2018-07-12T08:14:58.894Z,987
2018-07-12T08:16:08.470Z,987.01
2018-07-12T08:17:18.573Z,986.98
2018-07-12T08:18:28.653Z,986.96
2018-07-12T08:19:38.453Z,986.98
2018-07-12T08:20:48.269Z,986.98
2018-07-12T08:21:57.544Z,986.95
2018-07-12T08:23:07.125Z,986.99
2018-07-12T08:24:16.943Z,986.98
2018-07-12T08:25:26.507Z,987
2018-07-12T08:26:36.591Z,986.97
2018-07-12T08:27:46.386Z,986.95
2018-07-12T08:28:56.249Z,987.01
2018-07-12T08:30:06.327Z,986.96
2018-07-12T08:31:15.912Z,986.99
2018-07-12T08:32:25.602Z,986.97
2018-07-12T08:33:34.870Z,987.03
2018-07-12T08:34:44.714Z,987.02
2018-07-12T08:35:53.965Z,987
2018-07-12T08:37:03.796Z,987.02
2018-07-12T08:38:13.782Z,987.01
2018-07-12T08:39:23.876Z,987.04
2018-07-12T08:40:33.461Z,987.01
2018-07-12T08:41:43.900Z,987.03
2018-07-12T08:42:53.707Z,987.04
2018-07-12T08:44:03.804Z,987.04
2018-07-12T08:45:13.630Z,987.03
2018-07-12T08:46:23.520Z,987.03
2018-07-12T08:47:33.001Z,987.04
2018-07-12T08:48:42.805Z,987.05
2018-07-12T08:49:52.612Z,987.03
2018-07-12T08:51:02.699Z,987.06
2018-07-12T08:52:12.540Z,987.07
2018-07-12T08:53:21.808Z,987.08
2018-07-12T08:54:31.895Z,987.07
2018-07-12T08:55:42.232Z,987.05
2018-07-12T08:56:52.059Z,987.09
2018-07-12T08:58:02.191Z,987.05
2018-07-12T08:59:11.752Z,987.04
2018-07-12T09:00:21.572Z,987.05
2018-07-12T09:01:31.129Z,987.04
2018-07-12T09:02:41.001Z,987.01
2018-07-12T09:03:50.939Z,987.04
2018-07-12T09:05:00.479Z,987.05
2018-07-12T09:06:10.287Z,987.06
2018-07-12T09:07:20.372Z,987.02
2018-07-12T09:08:29.888Z,987.04
2018-07-12T09:09:40.012Z,987.02
2018-07-12T09:10:49.829Z,987.02
2018-07-12T09:11:59.645Z,987.03
2018-07-12T09:13:09.455Z,987.01
2018-07-12T09:14:18.978Z,987
2018-07-12T09:15:29.106Z,987.01
2018-07-12T09:16:39.031Z,987.01
2018-07-12T09:17:49.116Z,987.03
2018-07-12T09:18:59.211Z,987.02
2018-07-12T09:20:09.287Z,986.98
2018-07-12T09:21:19.152Z,986.98
2018-07-12T09:22:28.688Z,987.02
2018-07-12T09:23:38.741Z,987
2018-07-12T09:24:48.280Z,986.99
2018-07-12T09:25:58.089Z,986.99
2018-07-12T09:27:07.654Z,986.98
2018-07-12T09:28:17.462Z,986.98
2018-07-12T09:29:27.265Z,986.97
2018-07-12T09:30:36.819Z,986.98
2018-07-12T09:31:47.079Z,986.99
2018-07-12T09:32:57.211Z,987.01
2018-07-12T09:34:06.753Z,986.94
2018-07-12T09:35:16.293Z,986.97
2018-07-12T09:36:26.379Z,986.99
2018-07-12T09:37:36.195Z,986.99
2018-07-12T09:38:46.056Z,987
2018-07-12T09:39:55.876Z,987
2018-07-12T09:41:05.665Z,987.04
2018-07-12T09:42:15.471Z,987.02
2018-07-12T09:43:25.279Z,987.03
2018-07-12T09:44:35.111Z,987.07
2018-07-12T09:45:44.924Z,987.07
2018-07-12T09:46:54.736Z,987.05
2018-07-12T09:48:04.548Z,987.05
2018-07-12T09:49:14.460Z,987.03
2018-07-12T09:50:25.492Z,987.05
2018-07-12T09:51:35.021Z,987.04
2018-07-12T09:52:45.119Z,987.06
2018-07-12T09:53:54.951Z,987.08
2018-07-12T09:55:04.772Z,987.04
2018-07-12T09:56:14.972Z,987.04
2018-07-12T09:57:25.395Z,987.06
2018-07-12T09:58:34.938Z,987.06
2018-07-12T09:59:45.001Z,987.11
2018-07-12T10:00:54.266Z,987.07
2018-07-12T10:02:03.635Z,987.09
2018-07-12T10:03:13.169Z,987.06
2018-07-12T10:04:23.003Z,987.05
2018-07-12T10:05:32.827Z,987.07
2018-07-12T10:06:42.629Z,987.04
2018-07-12T10:07:52.490Z,987.04
2018-07-12T10:09:02.289Z,986.99
2018-07-12T10:10:12.103Z,987
2018-07-12T10:11:21.372Z,987
2018-07-12T10:12:31.439Z,987.04
2018-07-12T10:13:40.756Z,987.01
2018-07-12T10:14:50.819Z,987
2018-07-12T10:16:00.623Z,986.98
2018-07-12T10:17:10.696Z,987
2018-07-12T10:18:20.769Z,987.03
2018-07-12T10:19:30.883Z,987.01
2018-07-12T10:20:40.686Z,986.97
2018-07-12T10:21:50.794Z,987
2018-07-12T10:23:00.889Z,987.01
2018-07-12T10:24:10.695Z,986.94
2018-07-12T10:25:20.563Z,986.94
2018-07-12T10:26:29.832Z,986.95
2018-07-12T10:27:39.649Z,986.97
2018-07-12T10:28:48.921Z,986.96
2018-07-12T10:29:58.764Z,986.93
2018-07-12T10:31:08.642Z,986.92
2018-07-12T10:32:18.728Z,986.91
2018-07-12T10:33:28.802Z,986.92
2018-07-12T10:34:38.898Z,986.92
2018-07-12T10:35:48.761Z,986.92
2018-07-12T10:36:58.647Z,986.86
2018-07-12T10:38:07.905Z,986.86
2018-07-12T10:39:17.713Z,986.83
2018-07-12T10:40:26.992Z,986.88
2018-07-12T10:41:36.807Z,986.8
2018-07-12T10:42:46.674Z,986.84
2018-07-12T10:43:56.743Z,986.84
2018-07-12T10:45:06.575Z,986.82
2018-07-12T10:46:16.390Z,986.83
2018-07-12T10:47:25.912Z,986.84
2018-07-12T10:48:35.505Z,986.89
2018-07-12T10:49:45.332Z,986.88
2018-07-12T10:50:55.141Z,986.85
2018-07-12T10:52:04.947Z,986.84
2018-07-12T10:53:15.024Z,986.82
2018-07-12T10:54:25.159Z,986.81
2018-07-12T10:55:35.231Z,986.8
2018-07-12T10:56:45.043Z,986.79
2018-07-12T10:57:54.871Z,986.78
2018-07-12T10:59:04.683Z,986.8
2018-07-12T11:00:14.817Z,986.78
2018-07-12T11:01:24.622Z,986.73
2018-07-12T11:02:34.423Z,986.73
2018-07-12T11:03:43.685Z,986.74
2018-07-12T11:04:53.507Z,986.72
2018-07-12T11:06:03.375Z,986.74
2018-07-12T11:07:13.452Z,986.75
2018-07-12T11:08:23.271Z,986.75
2018-07-12T11:09:33.357Z,986.68
2018-07-12T11:10:42.890Z,986.68
2018-07-12T11:11:53.016Z,986.71
2018-07-12T11:13:02.831Z,986.71
2018-07-12T11:14:12.896Z,986.67
2018-07-12T11:15:22.707Z,986.63
2018-07-12T11:16:32.253Z,986.67
2018-07-12T11:17:42.391Z,986.66
2018-07-12T11:18:52.477Z,986.61
2018-07-12T11:20:02.562Z,986.6
2018-07-12T11:21:11.862Z,986.57
2018-07-12T11:22:21.436Z,986.51
2018-07-12T11:23:31.596Z,986.55
2018-07-12T11:24:41.145Z,986.48
2018-07-12T11:25:51.228Z,986.49
2018-07-12T11:27:01.033Z,986.52
2018-07-12T11:28:10.873Z,986.48
2018-07-12T11:29:21.179Z,986.49
2018-07-12T11:30:31.304Z,986.49
2018-07-12T11:31:41.107Z,986.47
2018-07-12T11:32:50.662Z,986.45
2018-07-12T11:34:00.478Z,986.47
2018-07-12T11:35:10.321Z,986.46
2018-07-12T11:36:19.866Z,986.47
2018-07-12T11:37:30.058Z,986.43
2018-07-12T11:38:39.857Z,986.45
2018-07-12T11:39:49.923Z,986.4
2018-07-12T11:40:59.780Z,986.43
2018-07-12T11:42:09.585Z,986.39
2018-07-12T11:43:19.672Z,986.43
2018-07-12T11:44:29.206Z,986.52
2018-07-12T11:45:38.743Z,986.47
2018-07-12T11:46:48.608Z,986.39
2018-07-12T11:47:58.140Z,986.4
2018-07-12T11:49:07.688Z,986.31
2018-07-12T11:50:17.511Z,986.32
2018-07-12T11:51:27.607Z,986.26
2018-07-12T11:52:37.563Z,986.24
2018-07-12T11:53:47.915Z,986.18
2018-07-12T11:54:58.000Z,986.05
2018-07-12T11:56:07.812Z,986.1
2018-07-12T11:57:17.904Z,986.15
2018-07-12T11:58:27.485Z,986.12
2018-07-12T11:59:37.043Z,986.1
2018-07-12T12:00:47.123Z,986.15
2018-07-12T12:01:57.037Z,986.03
2018-07-12T12:03:06.860Z,986.05
2018-07-12T12:04:16.996Z,986.04
2018-07-12T12:05:26.521Z,986.01
2018-07-12T12:06:36.601Z,986.04
2018-07-12T12:07:46.680Z,985.96
2018-07-12T12:08:56.506Z,986.03
2018-07-12T12:10:06.641Z,985.96
2018-07-12T12:11:16.442Z,985.92
2018-07-12T12:12:26.533Z,985.92
2018-07-12T12:13:36.614Z,985.95
2018-07-12T12:14:45.942Z,985.89
2018-07-12T12:15:55.521Z,985.9
2018-07-12T12:17:05.080Z,985.84
2018-07-12T12:18:14.906Z,985.85
2018-07-12T12:19:25.008Z,985.89
2018-07-12T12:20:34.721Z,985.88
2018-07-12T12:21:44.305Z,985.8
2018-07-12T12:22:54.130Z,985.78
2018-07-12T12:24:04.230Z,985.78
2018-07-12T12:25:13.782Z,985.7
2018-07-12T12:26:23.861Z,985.73
2018-07-12T12:27:33.591Z,985.73
2018-07-12T12:28:43.177Z,985.77
2018-07-12T12:29:53.318Z,985.73
2018-07-12T12:31:03.183Z,985.71
2018-07-12T12:32:12.726Z,985.73
2018-07-12T12:33:22.603Z,985.76
2018-07-12T12:34:32.659Z,985.7
2018-07-12T12:35:42.483Z,985.77
2018-07-12T12:36:52.585Z,985.84
2018-07-12T12:38:02.458Z,985.83
2018-07-12T12:39:11.791Z,985.81
2018-07-12T12:40:21.889Z,985.72
2018-07-12T12:41:31.703Z,985.76
2018-07-12T12:42:41.523Z,985.69
2018-07-12T12:43:51.338Z,985.63
2018-07-12T12:45:01.483Z,985.6
2018-07-12T12:46:11.310Z,985.6
2018-07-12T12:47:21.387Z,985.55
2018-07-12T12:48:31.532Z,985.68
2018-07-12T12:49:41.377Z,985.64
2018-07-12T12:50:51.328Z,985.56
2018-07-12T12:52:01.734Z,985.65
2018-07-12T12:53:11.278Z,985.62
2018-07-12T12:54:21.394Z,985.54
2018-07-12T12:55:31.482Z,985.7
2018-07-12T12:56:41.091Z,985.63
2018-07-12T12:57:51.182Z,985.65
2018-07-12T12:59:01.288Z,985.68
2018-07-12T13:00:11.204Z,985.63
2018-07-12T13:01:21.512Z,985.66
2018-07-12T13:02:31.387Z,985.6
2018-07-12T13:03:40.936Z,985.52
2018-07-12T13:04:51.022Z,985.53
2018-07-12T13:06:01.123Z,985.58
2018-07-12T13:07:10.932Z,985.55
2018-07-12T13:08:20.819Z,985.61
2018-07-12T13:09:30.367Z,985.58
2018-07-12T13:10:40.182Z,985.61
2018-07-12T13:11:49.713Z,985.55
2018-07-12T13:12:59.861Z,985.56
2018-07-12T13:14:10.006Z,985.54
2018-07-12T13:15:19.898Z,985.58
2018-07-12T13:16:29.985Z,985.55
2018-07-12T13:17:39.544Z,985.59
2018-07-12T13:18:49.636Z,985.6
2018-07-12T13:19:59.788Z,985.54
2018-07-12T13:21:09.387Z,985.48
2018-07-12T13:22:19.492Z,985.33
2018-07-12T13:23:29.067Z,985.46
2018-07-12T13:24:38.896Z,985.52
2018-07-12T13:25:49.061Z,985.48
2018-07-12T13:26:59.767Z,985.5
2018-07-12T13:28:09.967Z,985.51
2018-07-12T13:29:19.610Z,985.56
2018-07-12T13:30:29.693Z,985.67
2018-07-12T13:31:39.848Z,985.63
2018-07-12T13:32:49.802Z,985.72
2018-07-12T13:33:59.887Z,985.74
2018-07-12T13:35:09.446Z,985.62
2018-07-12T13:36:19.283Z,985.55
2018-07-12T13:37:29.260Z,985.65
2018-07-12T13:38:39.349Z,985.98
2018-07-12T13:39:49.435Z,985.88
2018-07-12T13:40:59.566Z,985.86
2018-07-12T13:42:09.679Z,985.82
2018-07-12T13:43:19.816Z,985.8
2018-07-12T13:44:29.623Z,985.79
2018-07-12T13:45:39.449Z,985.75
2018-07-12T13:46:48.798Z,985.71
2018-07-12T13:47:58.756Z,985.78
2018-07-12T13:49:08.631Z,985.83
2018-07-12T13:50:18.205Z,985.76
2018-07-12T13:51:28.344Z,985.84
2018-07-12T13:52:38.449Z,985.66
2018-07-12T13:53:48.007Z,985.26
2018-07-12T13:54:58.149Z,985.27
2018-07-12T13:56:07.996Z,985.35
2018-07-12T13:57:17.831Z,985.42
2018-07-12T13:58:27.651Z,985.49
2018-07-12T13:59:37.759Z,985.66
2018-07-12T14:00:47.911Z,986.07
2018-07-12T14:01:58.019Z,986.04
2018-07-12T14:03:07.839Z,986.05
2018-07-12T14:04:17.916Z,986.09
2018-07-12T14:05:27.749Z,986.01
2018-07-12T14:06:37.902Z,985.91
2018-07-12T14:07:47.727Z,985.89
2018-07-12T14:08:57.573Z,985.76
2018-07-12T14:10:07.390Z,985.63
2018-07-12T14:11:17.227Z,985.72
2018-07-12T14:12:27.076Z,985.53
2018-07-12T14:13:36.892Z,985.46
2018-07-12T14:14:46.969Z,985.68
2018-07-12T14:15:56.783Z,985.66
2018-07-12T14:17:06.877Z,985.66
2018-07-12T14:18:16.756Z,985.62
2018-07-12T14:19:26.581Z,985.65
2018-07-12T14:20:36.674Z,985.73
2018-07-12T14:21:46.508Z,985.78
2018-07-12T14:22:56.060Z,986.03
2018-07-12T14:24:05.918Z,985.93
2018-07-12T14:25:15.479Z,985.51
2018-07-12T14:26:24.757Z,985.48
2018-07-12T14:27:34.567Z,985.39
2018-07-12T14:28:44.110Z,985.33
2018-07-12T14:29:54.262Z,985.29
2018-07-12T14:31:03.810Z,985.23
2018-07-12T14:32:13.631Z,985.23
2018-07-12T14:33:23.193Z,985.28
2018-07-12T14:34:32.490Z,985.27
2018-07-12T14:35:42.653Z,985.33
2018-07-12T14:36:52.459Z,985.36
2018-07-12T14:38:02.563Z,985.39
2018-07-12T14:39:12.656Z,985.3
2018-07-12T14:40:22.755Z,985.32